sensor_id;sensor_type;location;lat;lon;timestamp;P1;P4;P2;P0;N10;N4;N25;N1;N05;TS
78460;SPS30;67755;51.986;5.696;2023-11-19T00:00:23;5.6;5.6;5.6;5.4;;;;1.0;195.0;
78460;SPS30;67755;51.986;5.696;2023-11-19T00:02:54;7.0;7.0;7.0;6.7;;;;1.0;194.0;
78460;SPS30;67755;51.986;5.696;2023-11-19T00:05:23;6.0;6.0;6.0;5.7;;;;1.0;184.0;
78460;SPS30;67755;51.986;5.696;2023-11-19T00:07:51;6.7;6.7;6.7;6.4;;;;1.0;183.0;
78460;SPS30;67755;51.986;5.696;2023-11-19T00:10:20;6.0;6.0;6.0;5.7;;;;1.0;181.0;
78460;SPS30;67755;51.986;5.696;2023-11-19T00:12:50;6.0;6.0;6.0;5.7;;;;1.0;189.0;
78460;SPS30;67755;51.986;5.696;2023-11-19T00:15:18;6.3;6.3;6.3;6.0;;;;1.0;174.0;
78460;SPS30;67755;51.986;5.696;2023-11-19T00:17:47;5.2;5.2;5.2;5.0;;;;1.0;173.0;
78460;SPS30;67755;51.986;5.696;2023-11-19T00:20:17;5.5;5.5;5.5;5.2;;;;1.0;162.0;
78460;SPS30;67755;51.986;5.696;2023-11-19T00:22:48;5.0;5.0;5.0;4.7;;;;1.0;174.0;
78460;SPS30;67755;51.986;5.696;2023-11-19T00:25:17;4.8;4.8;4.8;4.6;;;;1.0;177.0;
78460;SPS30;67755;51.986;5.696;2023-11-19T00:27:46;5.1;5.1;5.1;4.9;;;;1.0;177.0;
78460;SPS30;67755;51.986;5.696;2023-11-19T00:30:17;4.5;4.5;4.5;4.3;;;;1.0;191.0;
78460;SPS30;67755;51.986;5.696;2023-11-19T00:32:45;4.6;4.6;4.6;4.4;;;;1.0;183.0;
78460;SPS30;67755;51.986;5.696;2023-11-19T00:35:14;4.8;4.8;4.7;4.5;;;;1.0;162.0;
78460;SPS30;67755;51.986;5.696;2023-11-19T00:37:44;4.5;4.5;4.4;4.1;;;;1.0;161.0;
78460;SPS30;67755;51.986;5.696;2023-11-19T00:40:14;4.4;4.4;4.2;3.9;;;;1.0;161.0;
78460;SPS30;67755;51.986;5.696;2023-11-19T00:42:46;4.7;4.5;4.3;3.9;;;;1.0;154.0;
78460;SPS30;67755;51.986;5.696;2023-11-19T00:45:16;5.2;5.1;4.9;4.3;;;;1.0;160.0;
78460;SPS30;67755;51.986;5.696;2023-11-19T00:47:45;4.9;4.7;4.5;4.0;;;;1.0;149.0;
78460;SPS30;67755;51.986;5.696;2023-11-19T00:50:14;5.7;5.6;5.2;4.6;;;;1.0;153.0;
78460;SPS30;67755;51.986;5.696;2023-11-19T00:52:43;4.6;4.5;4.3;3.8;;;;1.0;163.0;
78460;SPS30;67755;51.986;5.696;2023-11-19T00:55:13;4.8;4.7;4.5;4.0;;;;1.0;141.0;
78460;SPS30;67755;51.986;5.696;2023-11-19T00:57:44;4.6;4.5;4.4;4.0;;;;1.0;147.0;
78460;SPS30;67755;51.986;5.696;2023-11-19T01:00:13;5.8;5.7;5.5;5.0;;;;1.0;158.0;
78460;SPS30;67755;51.986;5.696;2023-11-19T01:02:44;5.0;4.9;4.6;4.2;;;;1.0;146.0;
78460;SPS30;67755;51.986;5.696;2023-11-19T01:05:16;6.0;5.8;5.5;4.9;;;;1.0;170.0;
78460;SPS30;67755;51.986;5.696;2023-11-19T01:07:47;5.4;5.2;4.9;4.4;;;;1.0;169.0;
78460;SPS30;67755;51.986;5.696;2023-11-19T01:10:18;5.3;5.2;4.8;4.2;;;;1.0;147.0;
78460;SPS30;67755;51.986;5.696;2023-11-19T01:12:47;5.0;4.8;4.4;3.8;;;;1.0;147.0;
78460;SPS30;67755;51.986;5.696;2023-11-19T01:15:15;5.7;5.5;5.1;4.4;;;;1.0;143.0;
78460;SPS30;67755;51.986;5.696;2023-11-19T01:17:45;5.3;5.1;4.6;3.9;;;;1.0;158.0;
78460;SPS30;67755;51.986;5.696;2023-11-19T01:20:13;5.3;5.1;4.6;3.8;;;;1.0;170.0;
78460;SPS30;67755;51.986;5.696;2023-11-19T01:22:43;5.0;4.8;4.3;3.6;;;;1.0;162.0;
78460;SPS30;67755;51.986;5.696;2023-11-19T01:25:15;5.2;5.0;4.6;3.9;;;;1.0;149.0;
78460;SPS30;67755;51.986;5.696;2023-11-19T01:27:43;5.4;5.2;4.7;4.0;;;;1.0;140.0;
78460;SPS30;67755;51.986;5.696;2023-11-19T01:30:13;5.2;5.0;4.6;3.9;;;;1.0;142.0;
78460;SPS30;67755;51.986;5.696;2023-11-19T01:32:45;5.3;5.1;4.6;3.9;;;;1.0;149.0;
78460;SPS30;67755;51.986;5.696;2023-11-19T01:35:14;6.1;5.8;5.1;4.0;;;;1.0;164.0;
78460;SPS30;67755;51.986;5.696;2023-11-19T01:37:42;6.3;5.9;5.1;3.9;;;;1.0;151.0;
78460;SPS30;67755;51.986;5.696;2023-11-19T01:40:11;7.9;7.4;6.5;5.0;;;;1.0;135.0;
78460;SPS30;67755;51.986;5.696;2023-11-19T01:42:41;7.1;6.7;5.7;4.4;;;;1.0;151.0;
78460;SPS30;67755;51.986;5.696;2023-11-19T01:45:10;6.7;6.2;5.3;3.9;;;;1.0;148.0;
78460;SPS30;67755;51.986;5.696;2023-11-19T01:47:50;7.4;6.9;5.9;4.5;;;;1.0;147.0;
78460;SPS30;67755;51.986;5.696;2023-11-19T01:50:19;6.6;6.2;5.3;4.0;;;;1.0;154.0;
78460;SPS30;67755;51.986;5.696;2023-11-19T01:52:50;5.9;5.5;4.7;3.5;;;;1.0;158.0;
78460;SPS30;67755;51.986;5.696;2023-11-19T01:55:20;7.8;7.2;6.1;4.4;;;;1.0;140.0;
78460;SPS30;67755;51.986;5.696;2023-11-19T01:57:50;7.4;6.8;5.7;4.1;;;;1.0;129.0;
78460;SPS30;67755;51.986;5.696;2023-11-19T02:00:21;7.4;6.8;5.7;4.1;;;;1.0;127.0;
78460;SPS30;67755;51.986;5.696;2023-11-19T02:02:50;6.0;5.6;4.6;3.2;;;;1.0;120.0;
78460;SPS30;67755;51.986;5.696;2023-11-19T02:05:21;6.1;5.6;4.6;3.2;;;;1.0;138.0;
78460;SPS30;67755;51.986;5.696;2023-11-19T02:07:50;6.6;6.0;4.9;3.4;;;;1.0;136.0;
78460;SPS30;67755;51.986;5.696;2023-11-19T02:10:19;8.5;7.8;6.3;4.2;;;;1.0;113.0;
78460;SPS30;67755;51.986;5.696;2023-11-19T02:12:51;8.1;7.5;6.0;4.1;;;;1.0;153.0;
78460;SPS30;67755;51.986;5.696;2023-11-19T02:15:21;9.6;8.7;6.9;4.4;;;;1.0;121.0;
78460;SPS30;67755;51.986;5.696;2023-11-19T02:17:50;7.7;7.0;5.5;3.4;;;;1.0;120.0;
78460;SPS30;67755;51.986;5.696;2023-11-19T02:20:19;9.1;8.3;6.5;4.1;;;;1.0;130.0;
78460;SPS30;67755;51.986;5.696;2023-11-19T02:22:48;8.4;7.7;6.0;3.8;;;;1.0;131.0;
78460;SPS30;67755;51.986;5.696;2023-11-19T02:25:19;9.2;8.4;6.5;4.1;;;;1.0;150.0;
78460;SPS30;67755;51.986;5.696;2023-11-19T02:27:54;9.4;8.4;6.4;3.8;;;;1.0;126.0;
78460;SPS30;67755;51.986;5.696;2023-11-19T02:30:26;8.2;7.3;5.5;3.2;;;;1.0;118.0;
78460;SPS30;67755;51.986;5.696;2023-11-19T02:32:56;10.1;9.0;6.7;3.8;;;;1.0;112.0;
78460;SPS30;67755;51.986;5.696;2023-11-19T02:35:27;9.7;8.7;6.5;3.6;;;;1.0;106.0;
78460;SPS30;67755;51.986;5.696;2023-11-19T02:37:57;10.0;8.9;6.5;3.4;;;;1.0;112.0;
78460;SPS30;67755;51.986;5.696;2023-11-19T02:40:27;10.5;9.4;7.0;4.0;;;;1.0;114.0;
78460;SPS30;67755;51.986;5.696;2023-11-19T02:42:55;9.3;8.3;6.2;3.5;;;;1.0;131.0;
78460;SPS30;67755;51.986;5.696;2023-11-19T02:45:24;9.6;8.6;6.4;3.5;;;;1.0;127.0;
78460;SPS30;67755;51.986;5.696;2023-11-19T02:47:57;13.3;11.9;8.9;4.9;;;;1.0;116.0;
78460;SPS30;67755;51.986;5.696;2023-11-19T02:50:27;12.2;10.8;7.8;4.0;;;;1.0;103.0;
78460;SPS30;67755;51.986;5.696;2023-11-19T02:52:57;13.3;11.7;8.4;4.2;;;;1.0;104.0;
78460;SPS30;67755;51.986;5.696;2023-11-19T02:55:27;11.1;9.8;7.2;3.8;;;;1.0;106.0;
78460;SPS30;67755;51.986;5.696;2023-11-19T02:58:00;12.3;10.9;8.0;4.2;;;;1.0;92.0;
78460;SPS30;67755;51.986;5.696;2023-11-19T03:00:34;12.3;11.0;8.1;4.5;;;;1.0;99.0;
78460;SPS30;67755;51.986;5.696;2023-11-19T03:03:03;12.1;10.7;7.7;3.8;;;;1.0;81.0;
78460;SPS30;67755;51.986;5.696;2023-11-19T03:05:38;11.2;10.0;7.3;3.9;;;;1.0;75.0;
78460;SPS30;67755;51.986;5.696;2023-11-19T03:08:07;15.0;13.2;9.4;4.6;;;;1.0;82.0;
78460;SPS30;67755;51.986;5.696;2023-11-19T03:10:35;16.4;14.4;10.3;5.0;;;;1.0;81.0;
78460;SPS30;67755;51.986;5.696;2023-11-19T03:13:04;14.8;13.0;9.2;4.4;;;;1.0;80.0;
78460;SPS30;67755;51.986;5.696;2023-11-19T03:15:33;13.9;12.2;8.7;4.2;;;;1.0;96.0;
78460;SPS30;67755;51.986;5.696;2023-11-19T03:18:02;15.9;14.0;9.9;4.7;;;;1.0;96.0;
78460;SPS30;67755;51.986;5.696;2023-11-19T03:20:31;15.8;13.8;9.7;4.5;;;;1.0;95.0;
78460;SPS30;67755;51.986;5.696;2023-11-19T03:22:59;15.3;13.4;9.5;4.5;;;;1.0;94.0;
78460;SPS30;67755;51.986;5.696;2023-11-19T03:25:28;15.0;13.2;9.4;4.5;;;;1.0;87.0;
78460;SPS30;67755;51.986;5.696;2023-11-19T03:27:59;16.5;14.5;10.2;4.7;;;;1.0;90.0;
78460;SPS30;67755;51.986;5.696;2023-11-19T03:30:29;15.0;13.1;9.2;4.3;;;;1.0;83.0;
78460;SPS30;67755;51.986;5.696;2023-11-19T03:32:59;15.8;13.9;9.8;4.5;;;;1.0;82.0;
78460;SPS30;67755;51.986;5.696;2023-11-19T03:35:28;13.2;11.6;8.3;4.0;;;;1.0;78.0;
78460;SPS30;67755;51.986;5.696;2023-11-19T03:37:59;16.1;14.1;10.0;4.7;;;;1.0;75.0;
78460;SPS30;67755;51.986;5.696;2023-11-19T03:40:27;13.9;12.1;8.5;3.8;;;;1.0;94.0;
78460;SPS30;67755;51.986;5.696;2023-11-19T03:42:57;15.4;13.5;9.6;4.5;;;;1.0;81.0;
78460;SPS30;67755;51.986;5.696;2023-11-19T03:45:26;12.7;11.2;8.0;3.9;;;;1.0;87.0;
78460;SPS30;67755;51.986;5.696;2023-11-19T03:47:55;14.8;13.0;9.2;4.4;;;;1.0;86.0;
78460;SPS30;67755;51.986;5.696;2023-11-19T03:50:23;16.6;14.6;10.3;4.9;;;;1.0;95.0;
78460;SPS30;67755;51.986;5.696;2023-11-19T03:52:52;16.9;14.8;10.3;4.7;;;;1.0;89.0;
78460;SPS30;67755;51.986;5.696;2023-11-19T03:55:21;18.4;16.1;11.2;5.0;;;;1.0;77.0;
78460;SPS30;67755;51.986;5.696;2023-11-19T03:57:49;14.9;13.1;9.3;4.4;;;;1.0;74.0;
78460;SPS30;67755;51.986;5.696;2023-11-19T04:00:18;17.1;15.0;10.5;4.9;;;;1.0;80.0;
78460;SPS30;67755;51.986;5.696;2023-11-19T04:02:48;14.7;12.9;9.1;4.2;;;;1.0;79.0;
78460;SPS30;67755;51.986;5.696;2023-11-19T04:05:19;19.4;16.9;11.8;5.3;;;;1.0;85.0;
78460;SPS30;67755;51.986;5.696;2023-11-19T04:07:47;14.8;12.9;9.1;4.1;;;;1.0;65.0;
78460;SPS30;67755;51.986;5.696;2023-11-19T04:10:16;18.5;16.2;11.3;5.1;;;;1.0;58.0;
78460;SPS30;67755;51.986;5.696;2023-11-19T04:12:44;16.2;14.2;10.2;5.0;;;;1.0;64.0;
78460;SPS30;67755;51.986;5.696;2023-11-19T04:15:13;16.0;14.2;10.4;5.4;;;;1.0;66.0;
78460;SPS30;67755;51.986;5.696;2023-11-19T04:17:43;19.0;17.2;13.3;8.1;;;;1.0;62.0;
78460;SPS30;67755;51.986;5.696;2023-11-19T04:20:12;15.6;14.1;10.9;6.6;;;;1.0;65.0;
78460;SPS30;67755;51.986;5.696;2023-11-19T04:22:41;16.5;15.2;12.5;8.7;;;;1.0;68.0;
78460;SPS30;67755;51.986;5.696;2023-11-19T04:25:12;15.6;14.5;12.2;8.9;;;;1.0;65.0;
78460;SPS30;67755;51.986;5.696;2023-11-19T04:27:41;15.7;14.4;11.8;8.3;;;;1.0;66.0;
78460;SPS30;67755;51.986;5.696;2023-11-19T04:30:10;16.0;14.4;11.1;6.8;;;;1.0;49.0;
78460;SPS30;67755;51.986;5.696;2023-11-19T04:32:39;17.5;15.6;11.5;6.2;;;;1.0;51.0;
78460;SPS30;67755;51.986;5.696;2023-11-19T04:35:10;18.0;15.9;11.4;5.7;;;;1.0;44.0;
78460;SPS30;67755;51.986;5.696;2023-11-19T04:37:38;20.1;17.7;12.5;5.9;;;;1.0;48.0;
78460;SPS30;67755;51.986;5.696;2023-11-19T04:40:07;17.7;15.5;10.9;5.1;;;;1.0;50.0;
78460;SPS30;67755;51.986;5.696;2023-11-19T04:42:38;17.6;15.3;10.6;4.6;;;;1.0;43.0;
78460;SPS30;67755;51.986;5.696;2023-11-19T04:45:07;17.6;15.4;10.8;4.9;;;;1.0;45.0;
78460;SPS30;67755;51.986;5.696;2023-11-19T04:47:37;19.8;17.3;11.9;5.1;;;;1.0;43.0;
78460;SPS30;67755;51.986;5.696;2023-11-19T04:50:06;19.6;17.1;11.8;5.1;;;;1.0;39.0;
78460;SPS30;67755;51.986;5.696;2023-11-19T04:52:36;16.2;14.1;9.8;4.4;;;;1.0;38.0;
78460;SPS30;67755;51.986;5.696;2023-11-19T04:55:06;18.0;15.8;11.1;5.1;;;;1.0;47.0;
78460;SPS30;67755;51.986;5.696;2023-11-19T04:57:37;17.2;15.0;10.4;4.6;;;;1.0;44.0;
78460;SPS30;67755;51.986;5.696;2023-11-19T05:00:07;18.2;15.9;11.0;4.8;;;;1.0;45.0;
78460;SPS30;67755;51.986;5.696;2023-11-19T05:02:37;18.5;16.2;11.3;5.1;;;;1.0;48.0;
78460;SPS30;67755;51.986;5.696;2023-11-19T05:05:07;20.2;17.7;12.3;5.4;;;;1.0;42.0;
78460;SPS30;67755;51.986;5.696;2023-11-19T05:07:36;17.1;14.9;10.3;4.5;;;;1.0;46.0;
78460;SPS30;67755;51.986;5.696;2023-11-19T05:10:05;15.7;13.8;9.6;4.3;;;;1.0;55.0;
78460;SPS30;67755;51.986;5.696;2023-11-19T05:12:35;19.0;16.7;11.7;5.4;;;;1.0;56.0;
78460;SPS30;67755;51.986;5.696;2023-11-19T05:15:05;16.1;14.1;9.9;4.5;;;;1.0;56.0;
78460;SPS30;67755;51.986;5.696;2023-11-19T05:17:34;16.0;14.0;9.9;4.7;;;;1.0;53.0;
78460;SPS30;67755;51.986;5.696;2023-11-19T05:20:03;18.2;15.9;11.1;5.0;;;;1.0;46.0;
78460;SPS30;67755;51.986;5.696;2023-11-19T05:22:37;16.4;14.4;10.0;4.5;;;;1.0;51.0;
78460;SPS30;67755;51.986;5.696;2023-11-19T05:25:08;18.7;16.3;11.3;4.9;;;;1.0;52.0;
78460;SPS30;67755;51.986;5.696;2023-11-19T05:27:38;15.9;13.9;9.7;4.4;;;;1.0;49.0;
78460;SPS30;67755;51.986;5.696;2023-11-19T05:30:07;16.6;14.5;10.1;4.5;;;;1.0;45.0;
78460;SPS30;67755;51.986;5.696;2023-11-19T05:32:36;19.4;17.0;11.8;5.2;;;;1.0;45.0;
78460;SPS30;67755;51.986;5.696;2023-11-19T05:35:06;17.6;15.4;10.7;4.7;;;;1.0;43.0;
78460;SPS30;67755;51.986;5.696;2023-11-19T05:37:36;17.6;15.4;10.7;4.7;;;;1.0;45.0;
78460;SPS30;67755;51.986;5.696;2023-11-19T05:40:05;16.9;14.8;10.3;4.6;;;;1.0;51.0;
78460;SPS30;67755;51.986;5.696;2023-11-19T05:42:39;16.3;14.3;10.0;4.5;;;;1.0;58.0;
78460;SPS30;67755;51.986;5.696;2023-11-19T05:45:09;16.6;14.5;10.1;4.5;;;;1.0;55.0;
78460;SPS30;67755;51.986;5.696;2023-11-19T05:47:39;17.0;14.9;10.4;4.8;;;;1.0;45.0;
78460;SPS30;67755;51.986;5.696;2023-11-19T05:50:08;18.5;16.2;11.5;5.4;;;;1.0;43.0;
78460;SPS30;67755;51.986;5.696;2023-11-19T05:52:37;16.0;14.0;9.8;4.6;;;;2.0;44.0;
78460;SPS30;67755;51.986;5.696;2023-11-19T05:55:06;18.4;16.2;11.4;5.4;;;;2.0;50.0;
78460;SPS30;67755;51.986;5.696;2023-11-19T05:57:37;18.2;16.0;11.2;5.1;;;;2.0;51.0;
78460;SPS30;67755;51.986;5.696;2023-11-19T06:00:07;17.7;15.6;10.9;5.0;;;;2.0;54.0;
78460;SPS30;67755;51.986;5.696;2023-11-19T06:02:36;20.7;18.1;12.6;5.6;;;;2.0;54.0;
78460;SPS30;67755;51.986;5.696;2023-11-19T06:05:06;17.8;15.6;10.9;4.9;;;;2.0;41.0;
78460;SPS30;67755;51.986;5.696;2023-11-19T06:07:35;19.3;16.9;11.8;5.3;;;;2.0;42.0;
78460;SPS30;67755;51.986;5.696;2023-11-19T06:10:05;19.6;17.1;12.0;5.5;;;;2.0;41.0;
78460;SPS30;67755;51.986;5.696;2023-11-19T06:12:36;18.2;15.9;10.9;4.7;;;;2.0;42.0;
78460;SPS30;67755;51.986;5.696;2023-11-19T06:15:08;21.1;18.5;12.8;5.6;;;;2.0;44.0;
78460;SPS30;67755;51.986;5.696;2023-11-19T06:17:37;20.8;18.2;12.6;5.5;;;;2.0;39.0;
78460;SPS30;67755;51.986;5.696;2023-11-19T06:20:07;20.7;18.0;12.3;5.1;;;;2.0;40.0;
78460;SPS30;67755;51.986;5.696;2023-11-19T06:22:38;20.8;18.2;12.5;5.4;;;;2.0;46.0;
78460;SPS30;67755;51.986;5.696;2023-11-19T06:25:08;20.4;17.8;12.2;5.1;;;;2.0;41.0;
78460;SPS30;67755;51.986;5.696;2023-11-19T06:27:37;18.7;16.3;11.2;4.8;;;;2.0;53.0;
78460;SPS30;67755;51.986;5.696;2023-11-19T06:30:08;20.7;18.0;12.4;5.2;;;;2.0;60.0;
78460;SPS30;67755;51.986;5.696;2023-11-19T06:32:37;20.0;17.4;11.8;4.9;;;;2.0;55.0;
78460;SPS30;67755;51.986;5.696;2023-11-19T06:35:06;20.2;17.6;12.1;5.1;;;;2.0;46.0;
78460;SPS30;67755;51.986;5.696;2023-11-19T06:37:35;18.2;15.9;10.9;4.6;;;;2.0;45.0;
78460;SPS30;67755;51.986;5.696;2023-11-19T06:40:07;17.6;15.4;10.6;4.5;;;;2.0;35.0;
78460;SPS30;67755;51.986;5.696;2023-11-19T06:42:38;20.8;18.0;12.3;5.0;;;;2.0;35.0;
78460;SPS30;67755;51.986;5.696;2023-11-19T06:45:08;18.3;16.0;10.9;4.6;;;;2.0;35.0;
78460;SPS30;67755;51.986;5.696;2023-11-19T06:47:37;19.1;16.7;11.8;5.4;;;;2.0;37.0;
78460;SPS30;67755;51.986;5.696;2023-11-19T06:50:09;20.2;17.7;12.2;5.3;;;;2.0;42.0;
78460;SPS30;67755;51.986;5.696;2023-11-19T06:52:41;20.2;17.7;12.2;5.4;;;;2.0;42.0;
78460;SPS30;67755;51.986;5.696;2023-11-19T06:55:10;19.0;16.5;11.3;4.7;;;;2.0;41.0;
78460;SPS30;67755;51.986;5.696;2023-11-19T06:57:41;19.0;16.5;11.3;4.8;;;;2.0;44.0;
78460;SPS30;67755;51.986;5.696;2023-11-19T07:00:10;17.5;15.3;10.7;4.7;;;;2.0;45.0;
78460;SPS30;67755;51.986;5.696;2023-11-19T07:02:41;17.9;15.6;10.9;4.8;;;;2.0;49.0;
78460;SPS30;67755;51.986;5.696;2023-11-19T07:05:11;18.5;16.1;11.1;4.7;;;;2.0;50.0;
78460;SPS30;67755;51.986;5.696;2023-11-19T07:07:40;17.4;15.2;10.5;4.6;;;;2.0;63.0;
78460;SPS30;67755;51.986;5.696;2023-11-19T07:10:08;22.2;19.4;13.5;5.9;;;;2.0;62.0;
78460;SPS30;67755;51.986;5.696;2023-11-19T07:12:37;21.7;18.9;13.0;5.4;;;;2.0;58.0;
78460;SPS30;67755;51.986;5.696;2023-11-19T07:15:07;21.1;18.4;12.6;5.3;;;;2.0;45.0;
78460;SPS30;67755;51.986;5.696;2023-11-19T07:17:36;20.0;17.5;12.1;5.2;;;;2.0;45.0;
78460;SPS30;67755;51.986;5.696;2023-11-19T07:20:08;18.7;16.3;11.3;5.0;;;;2.0;49.0;
78460;SPS30;67755;51.986;5.696;2023-11-19T07:22:41;17.5;15.3;10.7;4.8;;;;2.0;72.0;
78460;SPS30;67755;51.986;5.696;2023-11-19T07:25:12;18.5;16.2;11.3;5.0;;;;2.0;64.0;
78460;SPS30;67755;51.986;5.696;2023-11-19T07:27:41;18.7;16.3;11.3;5.0;;;;2.0;55.0;
78460;SPS30;67755;51.986;5.696;2023-11-19T07:30:10;16.3;14.3;9.9;4.4;;;;2.0;57.0;
78460;SPS30;67755;51.986;5.696;2023-11-19T07:32:40;21.0;18.3;12.7;5.5;;;;2.0;60.0;
78460;SPS30;67755;51.986;5.696;2023-11-19T07:35:11;19.6;17.1;11.8;5.0;;;;2.0;64.0;
78460;SPS30;67755;51.986;5.696;2023-11-19T07:37:39;18.0;15.7;10.9;4.7;;;;2.0;72.0;
78460;SPS30;67755;51.986;5.696;2023-11-19T07:40:09;19.2;16.8;11.6;5.1;;;;2.0;70.0;
78460;SPS30;67755;51.986;5.696;2023-11-19T07:42:40;21.9;19.2;13.2;5.8;;;;2.0;58.0;
78460;SPS30;67755;51.986;5.696;2023-11-19T07:45:09;16.4;14.3;9.9;4.3;;;;2.0;61.0;
78460;SPS30;67755;51.986;5.696;2023-11-19T07:47:38;16.6;14.5;10.0;4.4;;;;2.0;64.0;
78460;SPS30;67755;51.986;5.696;2023-11-19T07:50:07;17.1;14.9;10.3;4.5;;;;2.0;66.0;
78460;SPS30;67755;51.986;5.696;2023-11-19T07:52:36;16.9;14.8;10.3;4.6;;;;2.0;54.0;
78460;SPS30;67755;51.986;5.696;2023-11-19T07:55:05;22.1;19.2;13.2;5.5;;;;2.0;48.0;
78460;SPS30;67755;51.986;5.696;2023-11-19T07:57:34;17.7;15.4;10.5;4.4;;;;2.0;52.0;
78460;SPS30;67755;51.986;5.696;2023-11-19T08:00:03;20.5;17.9;12.3;5.2;;;;2.0;60.0;
78460;SPS30;67755;51.986;5.696;2023-11-19T08:02:38;19.8;17.3;11.9;5.1;;;;2.0;59.0;
78460;SPS30;67755;51.986;5.696;2023-11-19T08:05:07;20.1;17.5;12.1;5.3;;;;2.0;57.0;
78460;SPS30;67755;51.986;5.696;2023-11-19T08:07:35;17.3;15.2;10.7;4.9;;;;2.0;48.0;
78460;SPS30;67755;51.986;5.696;2023-11-19T08:10:04;19.6;17.1;11.9;5.2;;;;2.0;44.0;
78460;SPS30;67755;51.986;5.696;2023-11-19T08:12:36;22.9;20.0;13.7;5.9;;;;2.0;45.0;
78460;SPS30;67755;51.986;5.696;2023-11-19T08:15:04;19.1;16.7;11.5;5.0;;;;2.0;47.0;
78460;SPS30;67755;51.986;5.696;2023-11-19T08:17:33;19.8;17.3;12.0;5.2;;;;2.0;64.0;
78460;SPS30;67755;51.986;5.696;2023-11-19T08:20:02;18.0;15.7;10.9;4.8;;;;2.0;60.0;
78460;SPS30;67755;51.986;5.696;2023-11-19T08:22:34;21.5;18.8;13.0;5.8;;;;2.0;59.0;
78460;SPS30;67755;51.986;5.696;2023-11-19T08:25:05;16.9;14.8;10.4;4.8;;;;2.0;57.0;
78460;SPS30;67755;51.986;5.696;2023-11-19T08:27:34;17.8;15.6;10.8;4.8;;;;2.0;55.0;
78460;SPS30;67755;51.986;5.696;2023-11-19T08:30:05;17.0;14.9;10.3;4.5;;;;2.0;51.0;
78460;SPS30;67755;51.986;5.696;2023-11-19T08:32:34;17.6;15.3;10.5;4.4;;;;2.0;53.0;
78460;SPS30;67755;51.986;5.696;2023-11-19T08:35:03;17.0;14.9;10.3;4.5;;;;2.0;51.0;
78460;SPS30;67755;51.986;5.696;2023-11-19T08:37:32;16.5;14.5;10.1;4.6;;;;2.0;50.0;
78460;SPS30;67755;51.986;5.696;2023-11-19T08:40:03;17.4;15.2;10.6;4.8;;;;2.0;52.0;
78460;SPS30;67755;51.986;5.696;2023-11-19T08:42:33;17.2;15.0;10.4;4.5;;;;2.0;65.0;
78460;SPS30;67755;51.986;5.696;2023-11-19T08:45:02;17.2;15.1;10.5;4.7;;;;2.0;65.0;
78460;SPS30;67755;51.986;5.696;2023-11-19T08:47:36;16.3;14.3;10.0;4.6;;;;2.0;70.0;
78460;SPS30;67755;51.986;5.696;2023-11-19T08:50:07;20.1;17.6;12.3;5.5;;;;2.0;68.0;
78460;SPS30;67755;51.986;5.696;2023-11-19T08:52:36;16.1;14.1;9.7;4.2;;;;2.0;46.0;
78460;SPS30;67755;51.986;5.696;2023-11-19T08:55:05;17.5;15.3;10.5;4.5;;;;2.0;47.0;
78460;SPS30;67755;51.986;5.696;2023-11-19T08:57:36;17.7;15.5;10.8;4.8;;;;2.0;78.0;
78460;SPS30;67755;51.986;5.696;2023-11-19T09:00:05;19.6;17.1;11.8;5.1;;;;2.0;71.0;
78460;SPS30;67755;51.986;5.696;2023-11-19T09:02:35;18.4;16.0;11.1;4.9;;;;2.0;72.0;
78460;SPS30;67755;51.986;5.696;2023-11-19T09:05:05;18.8;16.4;11.4;5.0;;;;2.0;63.0;
78460;SPS30;67755;51.986;5.696;2023-11-19T09:07:35;17.5;15.3;10.6;4.7;;;;2.0;85.0;
78460;SPS30;67755;51.986;5.696;2023-11-19T09:10:04;17.1;15.0;10.6;4.9;;;;2.0;66.0;
78460;SPS30;67755;51.986;5.696;2023-11-19T09:12:34;17.7;15.5;10.9;5.0;;;;2.0;60.0;
78460;SPS30;67755;51.986;5.696;2023-11-19T09:15:03;18.6;16.2;11.2;4.9;;;;2.0;56.0;
78460;SPS30;67755;51.986;5.696;2023-11-19T09:17:32;18.0;15.7;10.8;4.6;;;;2.0;53.0;
78460;SPS30;67755;51.986;5.696;2023-11-19T09:20:01;18.0;15.8;11.0;5.0;;;;2.0;46.0;
78460;SPS30;67755;51.986;5.696;2023-11-19T09:22:30;15.1;13.2;9.2;4.2;;;;2.0;46.0;
78460;SPS30;67755;51.986;5.696;2023-11-19T09:24:59;17.0;14.9;10.4;4.7;;;;2.0;41.0;
78460;SPS30;67755;51.986;5.696;2023-11-19T09:27:27;18.9;16.5;11.4;5.0;;;;2.0;41.0;
78460;SPS30;67755;51.986;5.696;2023-11-19T09:29:56;18.5;16.1;11.1;4.7;;;;2.0;46.0;
78460;SPS30;67755;51.986;5.696;2023-11-19T09:32:25;20.5;17.9;12.3;5.2;;;;2.0;48.0;
78460;SPS30;67755;51.986;5.696;2023-11-19T09:34:53;17.0;14.8;10.2;4.3;;;;2.0;45.0;
78460;SPS30;67755;51.986;5.696;2023-11-19T09:37:22;17.2;14.9;10.2;4.3;;;;2.0;67.0;
78460;SPS30;67755;51.986;5.696;2023-11-19T09:39:52;21.5;18.6;12.7;5.2;;;;2.0;61.0;
78460;SPS30;67755;51.986;5.696;2023-11-19T09:42:21;17.0;14.8;10.1;4.3;;;;2.0;50.0;
78460;SPS30;67755;51.986;5.696;2023-11-19T09:44:53;22.6;19.6;13.3;5.4;;;;2.0;53.0;
78460;SPS30;67755;51.986;5.696;2023-11-19T09:47:23;18.1;15.8;10.9;4.6;;;;2.0;86.0;
78460;SPS30;67755;51.986;5.696;2023-11-19T09:49:56;18.7;16.4;11.4;5.1;;;;2.0;75.0;
78460;SPS30;67755;51.986;5.696;2023-11-19T09:52:24;17.3;15.2;10.6;4.7;;;;2.0;70.0;
78460;SPS30;67755;51.986;5.696;2023-11-19T09:54:53;15.9;13.9;9.6;4.2;;;;2.0;68.0;
78460;SPS30;67755;51.986;5.696;2023-11-19T09:57:22;17.3;15.1;10.5;4.6;;;;2.0;70.0;
78460;SPS30;67755;51.986;5.696;2023-11-19T09:59:51;18.5;16.1;11.0;4.6;;;;2.0;82.0;
78460;SPS30;67755;51.986;5.696;2023-11-19T10:02:21;18.6;16.2;11.2;4.8;;;;2.0;86.0;
78460;SPS30;67755;51.986;5.696;2023-11-19T10:04:51;15.0;13.1;9.2;4.1;;;;2.0;92.0;
78460;SPS30;67755;51.986;5.696;2023-11-19T10:07:22;18.8;16.3;11.2;4.6;;;;2.0;83.0;
78460;SPS30;67755;51.986;5.696;2023-11-19T10:09:53;18.0;15.6;10.7;4.5;;;;2.0;75.0;
78460;SPS30;67755;51.986;5.696;2023-11-19T10:12:22;18.8;16.4;11.3;4.8;;;;2.0;53.0;
78460;SPS30;67755;51.986;5.696;2023-11-19T10:14:51;17.6;15.3;10.5;4.4;;;;2.0;73.0;
78460;SPS30;67755;51.986;5.696;2023-11-19T10:17:20;23.8;20.6;14.0;5.6;;;;2.0;80.0;
78460;SPS30;67755;51.986;5.696;2023-11-19T10:19:49;17.8;15.5;10.6;4.5;;;;2.0;63.0;
78460;SPS30;67755;51.986;5.696;2023-11-19T10:22:17;19.6;17.1;11.7;5.0;;;;2.0;57.0;
78460;SPS30;67755;51.986;5.696;2023-11-19T10:24:46;19.0;16.5;11.2;4.5;;;;2.0;58.0;
78460;SPS30;67755;51.986;5.696;2023-11-19T10:27:14;21.6;18.8;12.7;5.0;;;;2.0;58.0;
78460;SPS30;67755;51.986;5.696;2023-11-19T10:29:45;18.1;15.7;10.6;4.2;;;;2.0;57.0;
78460;SPS30;67755;51.986;5.696;2023-11-19T10:32:15;21.7;18.9;12.8;5.2;;;;2.0;58.0;
78460;SPS30;67755;51.986;5.696;2023-11-19T10:34:43;14.9;12.9;8.9;3.7;;;;2.0;79.0;
78460;SPS30;67755;51.986;5.696;2023-11-19T10:37:13;16.7;14.5;10.0;4.3;;;;2.0;88.0;
78460;SPS30;67755;51.986;5.696;2023-11-19T10:39:58;19.1;16.6;11.5;5.0;;;;2.0;63.0;
78460;SPS30;67755;51.986;5.696;2023-11-19T10:42:27;14.3;12.5;8.7;3.9;;;;2.0;46.0;
78460;SPS30;67755;51.986;5.696;2023-11-19T10:44:55;18.4;16.0;11.1;4.7;;;;2.0;50.0;
78460;SPS30;67755;51.986;5.696;2023-11-19T10:47:24;17.8;15.5;10.7;4.5;;;;2.0;49.0;
78460;SPS30;67755;51.986;5.696;2023-11-19T10:49:56;14.1;12.3;8.6;3.8;;;;2.0;56.0;
78460;SPS30;67755;51.986;5.696;2023-11-19T10:52:27;16.4;14.3;9.9;4.3;;;;2.0;55.0;
78460;SPS30;67755;51.986;5.696;2023-11-19T10:54:56;16.0;13.9;9.6;4.2;;;;2.0;55.0;
78460;SPS30;67755;51.986;5.696;2023-11-19T10:57:31;15.4;13.5;9.3;4.1;;;;2.0;56.0;
78460;SPS30;67755;51.986;5.696;2023-11-19T11:00:05;12.8;11.2;7.8;3.5;;;;2.0;78.0;
78460;SPS30;67755;51.986;5.696;2023-11-19T11:02:39;17.3;15.2;10.6;4.7;;;;2.0;68.0;
78460;SPS30;67755;51.986;5.696;2023-11-19T11:05:13;18.0;15.7;10.9;4.7;;;;2.0;60.0;
78460;SPS30;67755;51.986;5.696;2023-11-19T11:07:43;16.9;14.8;10.3;4.6;;;;2.0;48.0;
78460;SPS30;67755;51.986;5.696;2023-11-19T11:10:13;18.4;16.0;11.1;4.8;;;;2.0;52.0;
78460;SPS30;67755;51.986;5.696;2023-11-19T11:12:48;18.2;15.9;11.1;5.0;;;;2.0;46.0;
78460;SPS30;67755;51.986;5.696;2023-11-19T11:15:22;17.7;15.4;10.5;4.4;;;;2.0;49.0;
78460;SPS30;67755;51.986;5.696;2023-11-19T11:17:56;17.8;15.6;10.8;4.7;;;;2.0;68.0;
78460;SPS30;67755;51.986;5.696;2023-11-19T11:20:28;16.4;14.3;9.9;4.3;;;;2.0;71.0;
78460;SPS30;67755;51.986;5.696;2023-11-19T11:23:05;15.1;13.2;9.4;4.5;;;;2.0;68.0;
78460;SPS30;67755;51.986;5.696;2023-11-19T11:27:15;17.0;14.8;10.1;4.2;;;;2.0;56.0;
78460;SPS30;67755;51.986;5.696;2023-11-19T11:30:05;16.6;14.5;10.0;4.3;;;;2.0;67.0;
78460;SPS30;67755;51.986;5.696;2023-11-19T11:32:48;19.1;16.7;11.6;5.2;;;;2.0;60.0;
78460;SPS30;67755;51.986;5.696;2023-11-19T11:35:27;18.7;16.3;11.2;4.7;;;;2.0;78.0;
78460;SPS30;67755;51.986;5.696;2023-11-19T11:38:08;17.3;15.1;10.4;4.4;;;;2.0;60.0;
78460;SPS30;67755;51.986;5.696;2023-11-19T11:40:37;17.7;15.4;10.6;4.4;;;;2.0;50.0;
78460;SPS30;67755;51.986;5.696;2023-11-19T11:43:29;20.5;17.9;12.3;5.3;;;;2.0;51.0;
78460;SPS30;67755;51.986;5.696;2023-11-19T11:49:26;18.0;15.7;11.0;5.0;;;;2.0;69.0;
78460;SPS30;67755;51.986;5.696;2023-11-19T11:52:01;17.3;15.1;10.3;4.4;;;;2.0;62.0;
78460;SPS30;67755;51.986;5.696;2023-11-19T11:54:34;13.4;11.8;8.2;3.6;;;;2.0;59.0;
78460;SPS30;67755;51.986;5.696;2023-11-19T11:57:08;16.3;14.3;10.0;4.6;;;;2.0;61.0;
78460;SPS30;67755;51.986;5.696;2023-11-19T11:59:45;14.6;12.9;9.1;4.3;;;;2.0;52.0;
78460;SPS30;67755;51.986;5.696;2023-11-19T12:02:15;15.0;13.2;9.3;4.3;;;;2.0;45.0;
78460;SPS30;67755;51.986;5.696;2023-11-19T12:04:48;14.4;12.6;8.9;4.1;;;;2.0;47.0;
78460;SPS30;67755;51.986;5.696;2023-11-19T12:07:19;13.2;11.5;8.1;3.7;;;;2.0;59.0;
78460;SPS30;67755;51.986;5.696;2023-11-19T12:09:51;13.8;12.1;8.4;3.8;;;;2.0;76.0;